DLH756 EDDF-VABB
Flight info
| Callsign | DLH756 |
|---|---|
| Flight time | N/A |
| Altitude | 37000 |
| Route | SULUS4D/07C SULUS L984 OKG DCT PITOK DCT PERIT DCT BADOR DCT RILAS DCT REBLA DCT SOBSA DCT LAPKA DCT RIVOS DCT REVDA DCT UDROS DCT CRM UM11 EKTES UR317 REBLO P130 ELSIV/N0466F390 P130 MAMED B449 RANAH L750 ZB/N0478F400 G326 NH/N0480F390 N893 TELEM G210 BVR R458 BOFIN/N0477F400 DCT POKON DCT MB379 DCT EMROS |
| Aircraft | A343/H-SDE2E3FGHIJ4J5M1RWXY/LB1D1 |
Departure
| Time | 2026-05-01 13:34 |
|---|---|
| Airport | Frankfurt Main Airport (EDDF) |
Arrival
| Time | N/A |
|---|---|
| Airport | Chhatrapati Shivaji Maharaj International Airport (VABB) |
| Time | Latitude | Longitude | Altitude | Speed | Heading |
|---|---|---|---|---|---|
| 2026-05-01 13:07 | 50.04800 | 8.56922 | 363 ft | 0 kts | 294° |
| 2026-05-01 13:21 | 50.04796 | 8.56936 | 360 ft | 4 kts | 293° |
| 2026-05-01 13:21 | 50.04786 | 8.56974 | 367 ft | 4 kts | 295° |
| 2026-05-01 13:21 | 50.04780 | 8.57010 | 362 ft | 4 kts | 247° |
| 2026-05-01 13:21 | 50.04796 | 8.57036 | 368 ft | 2 kts | 204° |
| 2026-05-01 13:22 | 50.04786 | 8.57029 | 366 ft | 4 kts | 205° |
| 2026-05-01 13:22 | 50.04779 | 8.57024 | 361 ft | 0 kts | 205° |
| 2026-05-01 13:26 | 50.04778 | 8.57023 | 360 ft | 1 kts | 205° |
| 2026-05-01 13:26 | 50.04768 | 8.57016 | 366 ft | 3 kts | 205° |
| 2026-05-01 13:26 | 50.04725 | 8.56984 | 368 ft | 10 kts | 205° |
| 2026-05-01 13:26 | 50.04661 | 8.56939 | 366 ft | 10 kts | 204° |
| 2026-05-01 13:27 | 50.04595 | 8.56907 | 366 ft | 10 kts | 193° |
| 2026-05-01 13:27 | 50.04544 | 8.56888 | 365 ft | 7 kts | 193° |
| 2026-05-01 13:27 | 50.04414 | 8.56846 | 366 ft | 12 kts | 188° |
| 2026-05-01 13:28 | 50.04248 | 8.56767 | 371 ft | 12 kts | 237° |
| 2026-05-01 13:28 | 50.04212 | 8.56633 | 367 ft | 16 kts | 248° |
| 2026-05-01 13:29 | 50.04126 | 8.56275 | 359 ft | 19 kts | 249° |
| 2026-05-01 13:29 | 50.04034 | 8.55891 | 361 ft | 19 kts | 249° |
| 2026-05-01 13:30 | 50.03844 | 8.55096 | 356 ft | 20 kts | 249° |
| 2026-05-01 13:31 | 50.03746 | 8.54687 | 358 ft | 21 kts | 249° |
| 2026-05-01 13:31 | 50.03597 | 8.54319 | 356 ft | 8 kts | 163° |
| 2026-05-01 13:32 | 50.03507 | 8.54371 | 353 ft | 7 kts | 151° |
| 2026-05-01 13:33 | 50.03768 | 8.55579 | 360 ft | 100 kts | 70° |
| 2026-05-01 13:33 | 50.04419 | 8.58310 | 433 ft | 159 kts | 73° |
| 2026-05-01 13:34 | 50.05196 | 8.61291 | 1545 ft | 152 kts | 69° |
| 2026-05-01 13:34 | 50.06004 | 8.64586 | 2289 ft | 177 kts | 75° |
| 2026-05-01 13:35 | 50.06787 | 8.68645 | 2850 ft | 220 kts | 75° |
| 2026-05-01 13:35 | 50.07158 | 8.71033 | 3329 ft | 232 kts | 88° |
| 2026-05-01 13:35 | 50.06739 | 8.76163 | 4605 ft | 248 kts | 103° |
| 2026-05-01 13:36 | 50.06416 | 8.78834 | 5267 ft | 255 kts | 104° |
| 2026-05-01 13:36 | 50.06087 | 8.81582 | 6012 ft | 260 kts | 103° |
| 2026-05-01 13:36 | 50.05790 | 8.87280 | 7535 ft | 269 kts | 91° |
| 2026-05-01 13:37 | 50.05842 | 8.90205 | 8295 ft | 272 kts | 91° |
| 2026-05-01 13:37 | 50.05901 | 8.93166 | 8988 ft | 276 kts | 90° |
| 2026-05-01 13:37 | 50.05955 | 8.96162 | 9717 ft | 278 kts | 91° |
| 2026-05-01 13:37 | 50.06007 | 8.99178 | 10435 ft | 280 kts | 91° |
| 2026-05-01 13:38 | 50.06110 | 9.05525 | 11098 ft | 308 kts | 90° |
| 2026-05-01 13:38 | 50.06163 | 9.08927 | 11405 ft | 322 kts | 90° |
| 2026-05-01 13:38 | 50.06218 | 9.12449 | 11670 ft | 336 kts | 90° |
| 2026-05-01 13:39 | 50.06274 | 9.16162 | 11974 ft | 350 kts | 90° |
| 2026-05-01 13:39 | 50.06333 | 9.20008 | 12372 ft | 359 kts | 90° |
| 2026-05-01 13:39 | 50.06392 | 9.23924 | 12902 ft | 365 kts | 90° |
| 2026-05-01 13:39 | 50.06445 | 9.27899 | 13464 ft | 369 kts | 90° |
| 2026-05-01 13:40 | 50.06497 | 9.31928 | 14082 ft | 373 kts | 90° |
| 2026-05-01 13:40 | 50.06549 | 9.35981 | 14612 ft | 377 kts | 90° |
| 2026-05-01 13:40 | 50.06601 | 9.40087 | 15121 ft | 381 kts | 90° |
| 2026-05-01 13:40 | 50.06653 | 9.44229 | 15693 ft | 384 kts | 90° |
| 2026-05-01 13:41 | 50.06702 | 9.48412 | 16207 ft | 388 kts | 90° |
| 2026-05-01 13:41 | 50.06751 | 9.52628 | 16743 ft | 391 kts | 90° |
| 2026-05-01 13:41 | 50.06798 | 9.56821 | 17300 ft | 394 kts | 90° |
| 2026-05-01 13:41 | 50.06844 | 9.61102 | 17801 ft | 398 kts | 90° |
| 2026-05-01 13:42 | 50.06890 | 9.65421 | 18373 ft | 399 kts | 90° |
| 2026-05-01 13:42 | 50.06935 | 9.69749 | 18922 ft | 401 kts | 90° |
| 2026-05-01 13:42 | 50.06981 | 9.74121 | 19338 ft | 406 kts | 90° |
| 2026-05-01 13:42 | 50.07020 | 9.78518 | 19860 ft | 407 kts | 90° |
| 2026-05-01 13:43 | 50.07057 | 9.82936 | 20315 ft | 410 kts | 89° |
| 2026-05-01 13:43 | 50.07094 | 9.87408 | 20713 ft | 414 kts | 89° |
| 2026-05-01 13:43 | 50.07130 | 9.91898 | 21264 ft | 415 kts | 89° |
| 2026-05-01 13:43 | 50.07164 | 9.96409 | 21643 ft | 420 kts | 89° |
| 2026-05-01 13:44 | 50.07197 | 10.00978 | 22073 ft | 421 kts | 89° |
| 2026-05-01 13:44 | 50.07229 | 10.05531 | 22559 ft | 423 kts | 89° |
| 2026-05-01 13:44 | 50.07259 | 10.10147 | 22909 ft | 428 kts | 89° |
| 2026-05-01 13:44 | 50.07288 | 10.14787 | 23369 ft | 429 kts | 89° |
| 2026-05-01 13:45 | 50.07314 | 10.19396 | 23747 ft | 432 kts | 89° |
| 2026-05-01 13:45 | 50.07339 | 10.24093 | 24085 ft | 435 kts | 89° |
| 2026-05-01 13:45 | 50.07367 | 10.28809 | 24445 ft | 437 kts | 89° |
| 2026-05-01 13:45 | 50.07392 | 10.33558 | 24703 ft | 440 kts | 89° |
| 2026-05-01 13:46 | 50.07415 | 10.38329 | 25077 ft | 441 kts | 89° |
| 2026-05-01 13:46 | 50.07436 | 10.43117 | 25382 ft | 444 kts | 89° |
| 2026-05-01 13:46 | 50.07455 | 10.47947 | 25673 ft | 447 kts | 89° |
| 2026-05-01 13:46 | 50.07472 | 10.52788 | 26019 ft | 448 kts | 89° |
| 2026-05-01 13:47 | 50.07488 | 10.57654 | 26271 ft | 451 kts | 89° |
| 2026-05-01 13:47 | 50.07501 | 10.62533 | 26597 ft | 453 kts | 89° |
| 2026-05-01 13:47 | 50.07513 | 10.67429 | 26887 ft | 455 kts | 89° |
| 2026-05-01 13:47 | 50.07523 | 10.72388 | 27158 ft | 457 kts | 89° |
| 2026-05-01 13:48 | 50.07534 | 10.77339 | 27459 ft | 459 kts | 89° |
| 2026-05-01 13:48 | 50.07540 | 10.82319 | 27715 ft | 462 kts | 89° |
| 2026-05-01 13:48 | 50.07540 | 10.87300 | 27992 ft | 463 kts | 89° |
| 2026-05-01 13:48 | 50.07537 | 10.92322 | 28240 ft | 466 kts | 89° |
| 2026-05-01 13:49 | 50.07532 | 10.97421 | 28496 ft | 468 kts | 89° |